sensor_id;sensor_type;location;lat;lon;timestamp;P1;durP1;ratioP1;P2;durP2;ratioP2
23826;SDS011;12094;50.822;4.376;2022-10-18T00:00:29;10.15;;;6.85;;
23826;SDS011;12094;50.822;4.376;2022-10-18T00:02:58;9.73;;;6.90;;
23826;SDS011;12094;50.822;4.376;2022-10-18T00:05:28;9.13;;;6.78;;
23826;SDS011;12094;50.822;4.376;2022-10-18T00:10:26;10.00;;;7.53;;
23826;SDS011;12094;50.822;4.376;2022-10-18T00:12:53;10.60;;;7.13;;
23826;SDS011;12094;50.822;4.376;2022-10-18T00:15:21;10.52;;;7.68;;
23826;SDS011;12094;50.822;4.376;2022-10-18T00:17:48;12.68;;;8.10;;
23826;SDS011;12094;50.822;4.376;2022-10-18T00:20:16;11.63;;;7.80;;
23826;SDS011;12094;50.822;4.376;2022-10-18T00:22:46;9.20;;;7.57;;
23826;SDS011;12094;50.822;4.376;2022-10-18T00:25:13;10.32;;;8.07;;
23826;SDS011;12094;50.822;4.376;2022-10-18T00:27:41;12.68;;;8.05;;
23826;SDS011;12094;50.822;4.376;2022-10-18T00:30:08;12.40;;;7.90;;
23826;SDS011;12094;50.822;4.376;2022-10-18T00:32:36;12.93;;;8.27;;
23826;SDS011;12094;50.822;4.376;2022-10-18T00:35:03;10.48;;;8.23;;
23826;SDS011;12094;50.822;4.376;2022-10-18T00:37:31;12.32;;;8.07;;
23826;SDS011;12094;50.822;4.376;2022-10-18T00:40:00;11.38;;;8.55;;
23826;SDS011;12094;50.822;4.376;2022-10-18T00:42:29;12.30;;;8.60;;
23826;SDS011;12094;50.822;4.376;2022-10-18T00:45:02;12.32;;;9.45;;
23826;SDS011;12094;50.822;4.376;2022-10-18T00:47:30;11.70;;;8.80;;
23826;SDS011;12094;50.822;4.376;2022-10-18T00:50:03;15.07;;;9.35;;
23826;SDS011;12094;50.822;4.376;2022-10-18T00:52:41;15.48;;;8.30;;
23826;SDS011;12094;50.822;4.376;2022-10-18T00:55:12;12.98;;;8.85;;
23826;SDS011;12094;50.822;4.376;2022-10-18T00:57:40;10.95;;;8.80;;
23826;SDS011;12094;50.822;4.376;2022-10-18T01:00:12;16.45;;;9.63;;
23826;SDS011;12094;50.822;4.376;2022-10-18T01:02:41;15.03;;;10.13;;
23826;SDS011;12094;50.822;4.376;2022-10-18T01:05:13;11.05;;;8.93;;
23826;SDS011;12094;50.822;4.376;2022-10-18T01:07:54;12.80;;;9.80;;
23826;SDS011;12094;50.822;4.376;2022-10-18T01:13:22;13.77;;;9.50;;
23826;SDS011;12094;50.822;4.376;2022-10-18T01:21:34;12.05;;;8.98;;
23826;SDS011;12094;50.822;4.376;2022-10-18T01:32:25;14.52;;;10.23;;
23826;SDS011;12094;50.822;4.376;2022-10-18T01:34:58;14.02;;;10.15;;
23826;SDS011;12094;50.822;4.376;2022-10-18T01:37:31;14.27;;;10.65;;
23826;SDS011;12094;50.822;4.376;2022-10-18T01:40:02;13.90;;;10.32;;
23826;SDS011;12094;50.822;4.376;2022-10-18T01:42:32;13.68;;;10.23;;
23826;SDS011;12094;50.822;4.376;2022-10-18T01:45:01;14.73;;;10.77;;
23826;SDS011;12094;50.822;4.376;2022-10-18T01:47:31;13.18;;;10.05;;
23826;SDS011;12094;50.822;4.376;2022-10-18T01:50:01;14.13;;;10.10;;
23826;SDS011;12094;50.822;4.376;2022-10-18T01:52:32;13.73;;;10.82;;
23826;SDS011;12094;50.822;4.376;2022-10-18T01:55:01;14.15;;;10.32;;
23826;SDS011;12094;50.822;4.376;2022-10-18T01:57:38;13.52;;;10.80;;
23826;SDS011;12094;50.822;4.376;2022-10-18T02:00:16;18.13;;;10.95;;
23826;SDS011;12094;50.822;4.376;2022-10-18T02:02:52;15.43;;;10.43;;
23826;SDS011;12094;50.822;4.376;2022-10-18T02:05:30;16.55;;;11.20;;
23826;SDS011;12094;50.822;4.376;2022-10-18T02:08:54;14.93;;;10.60;;
23826;SDS011;12094;50.822;4.376;2022-10-18T02:11:14;14.55;;;10.73;;
23826;SDS011;12094;50.822;4.376;2022-10-18T02:16:20;15.57;;;11.00;;
23826;SDS011;12094;50.822;4.376;2022-10-18T02:18:55;16.58;;;10.95;;
23826;SDS011;12094;50.822;4.376;2022-10-18T02:21:25;21.58;;;11.32;;
23826;SDS011;12094;50.822;4.376;2022-10-18T02:26:28;14.40;;;10.82;;
23826;SDS011;12094;50.822;4.376;2022-10-18T02:28:57;16.83;;;11.43;;
23826;SDS011;12094;50.822;4.376;2022-10-18T02:34:37;14.40;;;10.95;;
23826;SDS011;12094;50.822;4.376;2022-10-18T02:37:09;18.20;;;12.30;;
23826;SDS011;12094;50.822;4.376;2022-10-18T02:39:45;16.80;;;10.88;;
23826;SDS011;12094;50.822;4.376;2022-10-18T02:42:18;18.52;;;12.43;;
23826;SDS011;12094;50.822;4.376;2022-10-18T02:44:47;18.85;;;13.20;;
23826;SDS011;12094;50.822;4.376;2022-10-18T02:47:17;19.88;;;13.90;;
23826;SDS011;12094;50.822;4.376;2022-10-18T02:49:44;22.67;;;14.80;;
23826;SDS011;12094;50.822;4.376;2022-10-18T02:52:10;20.90;;;14.10;;
23826;SDS011;12094;50.822;4.376;2022-10-18T02:54:39;20.55;;;14.73;;
23826;SDS011;12094;50.822;4.376;2022-10-18T02:57:08;22.88;;;15.70;;
23826;SDS011;12094;50.822;4.376;2022-10-18T02:59:36;26.80;;;16.75;;
23826;SDS011;12094;50.822;4.376;2022-10-18T03:02:05;24.17;;;16.67;;
23826;SDS011;12094;50.822;4.376;2022-10-18T03:04:34;26.48;;;16.25;;
23826;SDS011;12094;50.822;4.376;2022-10-18T03:07:03;27.35;;;18.48;;
23826;SDS011;12094;50.822;4.376;2022-10-18T03:09:31;24.42;;;17.38;;
23826;SDS011;12094;50.822;4.376;2022-10-18T03:12:01;24.70;;;17.65;;
23826;SDS011;12094;50.822;4.376;2022-10-18T03:14:28;28.35;;;19.77;;
23826;SDS011;12094;50.822;4.376;2022-10-18T03:16:56;34.38;;;19.27;;
23826;SDS011;12094;50.822;4.376;2022-10-18T03:19:26;28.77;;;20.42;;
23826;SDS011;12094;50.822;4.376;2022-10-18T03:21:53;29.75;;;20.30;;
23826;SDS011;12094;50.822;4.376;2022-10-18T03:24:20;30.92;;;20.40;;
23826;SDS011;12094;50.822;4.376;2022-10-18T03:26:48;33.67;;;21.92;;
23826;SDS011;12094;50.822;4.376;2022-10-18T03:29:17;32.80;;;21.92;;
23826;SDS011;12094;50.822;4.376;2022-10-18T03:31:46;32.90;;;22.20;;
23826;SDS011;12094;50.822;4.376;2022-10-18T03:34:15;33.38;;;22.63;;
23826;SDS011;12094;50.822;4.376;2022-10-18T03:36:43;36.58;;;22.23;;
23826;SDS011;12094;50.822;4.376;2022-10-18T03:39:11;35.80;;;23.17;;
23826;SDS011;12094;50.822;4.376;2022-10-18T03:41:39;31.92;;;23.92;;
23826;SDS011;12094;50.822;4.376;2022-10-18T03:44:07;37.83;;;25.38;;
23826;SDS011;12094;50.822;4.376;2022-10-18T03:46:34;35.08;;;24.85;;
23826;SDS011;12094;50.822;4.376;2022-10-18T03:49:01;40.80;;;25.15;;
23826;SDS011;12094;50.822;4.376;2022-10-18T03:51:28;40.28;;;26.65;;
23826;SDS011;12094;50.822;4.376;2022-10-18T03:53:57;44.30;;;26.52;;
23826;SDS011;12094;50.822;4.376;2022-10-18T03:56:24;37.78;;;25.02;;
23826;SDS011;12094;50.822;4.376;2022-10-18T03:58:53;39.60;;;25.60;;
23826;SDS011;12094;50.822;4.376;2022-10-18T04:01:23;41.47;;;25.77;;
23826;SDS011;12094;50.822;4.376;2022-10-18T04:03:52;33.10;;;25.15;;
23826;SDS011;12094;50.822;4.376;2022-10-18T04:06:20;35.88;;;25.23;;
23826;SDS011;12094;50.822;4.376;2022-10-18T04:08:49;34.00;;;24.65;;
23826;SDS011;12094;50.822;4.376;2022-10-18T04:11:17;37.80;;;24.85;;
23826;SDS011;12094;50.822;4.376;2022-10-18T04:13:44;30.48;;;23.13;;
23826;SDS011;12094;50.822;4.376;2022-10-18T04:16:12;37.53;;;23.95;;
23826;SDS011;12094;50.822;4.376;2022-10-18T04:18:40;32.72;;;23.52;;
23826;SDS011;12094;50.822;4.376;2022-10-18T04:21:08;34.17;;;22.60;;
23826;SDS011;12094;50.822;4.376;2022-10-18T04:23:37;31.55;;;22.23;;
23826;SDS011;12094;50.822;4.376;2022-10-18T04:26:04;34.78;;;21.73;;
23826;SDS011;12094;50.822;4.376;2022-10-18T04:28:33;33.53;;;21.17;;
23826;SDS011;12094;50.822;4.376;2022-10-18T04:31:04;33.95;;;20.48;;
23826;SDS011;12094;50.822;4.376;2022-10-18T04:36:58;29.92;;;20.13;;
23826;SDS011;12094;50.822;4.376;2022-10-18T04:39:28;27.48;;;19.42;;
23826;SDS011;12094;50.822;4.376;2022-10-18T04:45:17;29.90;;;18.83;;
23826;SDS011;12094;50.822;4.376;2022-10-18T04:47:48;28.08;;;19.00;;
23826;SDS011;12094;50.822;4.376;2022-10-18T04:50:15;33.45;;;20.42;;
23826;SDS011;12094;50.822;4.376;2022-10-18T05:03:50;34.78;;;20.38;;
23826;SDS011;12094;50.822;4.376;2022-10-18T05:06:30;32.75;;;20.15;;
23826;SDS011;12094;50.822;4.376;2022-10-18T05:09:02;31.40;;;20.50;;
23826;SDS011;12094;50.822;4.376;2022-10-18T05:23:11;36.10;;;19.73;;
23826;SDS011;12094;50.822;4.376;2022-10-18T05:30:06;35.83;;;20.83;;
23826;SDS011;12094;50.822;4.376;2022-10-18T05:32:34;28.95;;;20.15;;
23826;SDS011;12094;50.822;4.376;2022-10-18T05:37:36;32.25;;;20.60;;
23826;SDS011;12094;50.822;4.376;2022-10-18T05:43:08;36.10;;;20.13;;
23826;SDS011;12094;50.822;4.376;2022-10-18T05:45:38;30.33;;;19.42;;
23826;SDS011;12094;50.822;4.376;2022-10-18T05:48:09;35.70;;;20.60;;
23826;SDS011;12094;50.822;4.376;2022-10-18T05:50:37;31.25;;;18.88;;
23826;SDS011;12094;50.822;4.376;2022-10-18T05:53:05;29.80;;;16.25;;
23826;SDS011;12094;50.822;4.376;2022-10-18T05:55:51;27.60;;;15.98;;
23826;SDS011;12094;50.822;4.376;2022-10-18T05:58:17;34.80;;;16.27;;
23826;SDS011;12094;50.822;4.376;2022-10-18T06:00:44;34.97;;;16.38;;
23826;SDS011;12094;50.822;4.376;2022-10-18T06:03:12;28.95;;;16.10;;
23826;SDS011;12094;50.822;4.376;2022-10-18T06:05:39;32.78;;;15.73;;
23826;SDS011;12094;50.822;4.376;2022-10-18T06:08:06;30.65;;;15.82;;
23826;SDS011;12094;50.822;4.376;2022-10-18T06:10:39;32.05;;;15.35;;
23826;SDS011;12094;50.822;4.376;2022-10-18T06:13:06;26.85;;;14.02;;
23826;SDS011;12094;50.822;4.376;2022-10-18T06:15:33;26.88;;;15.00;;
23826;SDS011;12094;50.822;4.376;2022-10-18T06:18:01;26.33;;;14.85;;
23826;SDS011;12094;50.822;4.376;2022-10-18T06:20:29;31.05;;;16.05;;
23826;SDS011;12094;50.822;4.376;2022-10-18T06:22:55;29.55;;;15.57;;
23826;SDS011;12094;50.822;4.376;2022-10-18T06:25:22;32.45;;;16.60;;
23826;SDS011;12094;50.822;4.376;2022-10-18T06:27:50;27.52;;;15.70;;
23826;SDS011;12094;50.822;4.376;2022-10-18T06:30:21;32.25;;;16.63;;
23826;SDS011;12094;50.822;4.376;2022-10-18T06:32:49;29.65;;;16.38;;
23826;SDS011;12094;50.822;4.376;2022-10-18T06:35:16;32.70;;;16.40;;
23826;SDS011;12094;50.822;4.376;2022-10-18T06:37:43;30.80;;;15.90;;
23826;SDS011;12094;50.822;4.376;2022-10-18T06:40:10;29.92;;;16.00;;
23826;SDS011;12094;50.822;4.376;2022-10-18T06:42:37;31.88;;;16.45;;
23826;SDS011;12094;50.822;4.376;2022-10-18T06:45:05;27.00;;;15.65;;
23826;SDS011;12094;50.822;4.376;2022-10-18T06:47:33;28.90;;;16.23;;
23826;SDS011;12094;50.822;4.376;2022-10-18T06:50:02;31.60;;;17.15;;
23826;SDS011;12094;50.822;4.376;2022-10-18T06:52:29;32.28;;;16.13;;
23826;SDS011;12094;50.822;4.376;2022-10-18T06:54:58;32.03;;;16.83;;
23826;SDS011;12094;50.822;4.376;2022-10-18T06:57:28;35.20;;;15.38;;
23826;SDS011;12094;50.822;4.376;2022-10-18T06:59:57;29.55;;;15.75;;
23826;SDS011;12094;50.822;4.376;2022-10-18T07:02:25;30.08;;;15.98;;
23826;SDS011;12094;50.822;4.376;2022-10-18T07:04:52;26.35;;;14.63;;
23826;SDS011;12094;50.822;4.376;2022-10-18T07:07:19;24.48;;;14.05;;
23826;SDS011;12094;50.822;4.376;2022-10-18T07:09:48;25.38;;;13.30;;
23826;SDS011;12094;50.822;4.376;2022-10-18T07:12:15;29.65;;;13.98;;
23826;SDS011;12094;50.822;4.376;2022-10-18T07:14:44;32.08;;;13.70;;
23826;SDS011;12094;50.822;4.376;2022-10-18T07:17:14;26.55;;;13.30;;
23826;SDS011;12094;50.822;4.376;2022-10-18T07:19:41;24.25;;;12.32;;
23826;SDS011;12094;50.822;4.376;2022-10-18T07:22:08;24.90;;;12.85;;
23826;SDS011;12094;50.822;4.376;2022-10-18T07:24:36;27.83;;;12.35;;
23826;SDS011;12094;50.822;4.376;2022-10-18T07:27:05;28.42;;;12.82;;
23826;SDS011;12094;50.822;4.376;2022-10-18T07:29:33;28.05;;;13.38;;
23826;SDS011;12094;50.822;4.376;2022-10-18T07:32:05;35.47;;;12.75;;
23826;SDS011;12094;50.822;4.376;2022-10-18T07:34:33;34.33;;;12.48;;
23826;SDS011;12094;50.822;4.376;2022-10-18T07:39:30;29.67;;;13.45;;
23826;SDS011;12094;50.822;4.376;2022-10-18T07:41:58;32.50;;;12.23;;
23826;SDS011;12094;50.822;4.376;2022-10-18T07:44:25;25.70;;;11.32;;
23826;SDS011;12094;50.822;4.376;2022-10-18T07:46:53;32.05;;;13.18;;
23826;SDS011;12094;50.822;4.376;2022-10-18T07:49:20;25.17;;;12.15;;
23826;SDS011;12094;50.822;4.376;2022-10-18T07:51:48;34.30;;;13.00;;
23826;SDS011;12094;50.822;4.376;2022-10-18T07:54:15;28.98;;;12.20;;
23826;SDS011;12094;50.822;4.376;2022-10-18T07:56:43;31.95;;;12.25;;
23826;SDS011;12094;50.822;4.376;2022-10-18T07:59:12;27.77;;;11.73;;
23826;SDS011;12094;50.822;4.376;2022-10-18T08:01:39;33.20;;;11.10;;
23826;SDS011;12094;50.822;4.376;2022-10-18T08:04:06;26.23;;;10.70;;
23826;SDS011;12094;50.822;4.376;2022-10-18T08:06:38;25.02;;;9.50;;
23826;SDS011;12094;50.822;4.376;2022-10-18T08:09:05;36.75;;;18.23;;
23826;SDS011;12094;50.822;4.376;2022-10-18T08:14:02;33.17;;;12.60;;
23826;SDS011;12094;50.822;4.376;2022-10-18T08:16:29;37.78;;;13.75;;
23826;SDS011;12094;50.822;4.376;2022-10-18T08:18:59;30.88;;;13.10;;
23826;SDS011;12094;50.822;4.376;2022-10-18T08:21:27;30.38;;;11.95;;
23826;SDS011;12094;50.822;4.376;2022-10-18T08:23:54;26.38;;;10.45;;
23826;SDS011;12094;50.822;4.376;2022-10-18T08:26:21;25.67;;;9.18;;
23826;SDS011;12094;50.822;4.376;2022-10-18T08:28:49;28.42;;;8.95;;
23826;SDS011;12094;50.822;4.376;2022-10-18T08:31:35;26.92;;;9.43;;
23826;SDS011;12094;50.822;4.376;2022-10-18T08:34:02;25.25;;;7.88;;
23826;SDS011;12094;50.822;4.376;2022-10-18T08:36:30;19.95;;;8.55;;
23826;SDS011;12094;50.822;4.376;2022-10-18T08:38:58;17.95;;;8.50;;
23826;SDS011;12094;50.822;4.376;2022-10-18T08:47:03;27.08;;;8.32;;
23826;SDS011;12094;50.822;4.376;2022-10-18T08:49:40;29.48;;;8.45;;
23826;SDS011;12094;50.822;4.376;2022-10-18T08:52:33;23.30;;;7.78;;
23826;SDS011;12094;50.822;4.376;2022-10-18T08:55:25;27.58;;;7.20;;
23826;SDS011;12094;50.822;4.376;2022-10-18T08:58:03;21.27;;;7.57;;
23826;SDS011;12094;50.822;4.376;2022-10-18T09:00:53;21.45;;;7.30;;
23826;SDS011;12094;50.822;4.376;2022-10-18T09:06:28;25.35;;;8.32;;
23826;SDS011;12094;50.822;4.376;2022-10-18T09:14:45;30.83;;;8.65;;
23826;SDS011;12094;50.822;4.376;2022-10-18T09:19:54;27.27;;;7.75;;
23826;SDS011;12094;50.822;4.376;2022-10-18T09:22:38;24.58;;;6.50;;
23826;SDS011;12094;50.822;4.376;2022-10-18T09:25:23;32.60;;;5.75;;
23826;SDS011;12094;50.822;4.376;2022-10-18T09:36:23;30.05;;;6.75;;
23826;SDS011;12094;50.822;4.376;2022-10-18T09:38:54;35.33;;;7.70;;
23826;SDS011;12094;50.822;4.376;2022-10-18T09:41:32;24.42;;;7.15;;
23826;SDS011;12094;50.822;4.376;2022-10-18T09:44:09;28.08;;;6.30;;
23826;SDS011;12094;50.822;4.376;2022-10-18T09:46:58;28.20;;;6.45;;
23826;SDS011;12094;50.822;4.376;2022-10-18T09:49:29;18.63;;;5.47;;
23826;SDS011;12094;50.822;4.376;2022-10-18T09:52:03;29.10;;;6.15;;
23826;SDS011;12094;50.822;4.376;2022-10-18T09:54:39;23.30;;;6.03;;
23826;SDS011;12094;50.822;4.376;2022-10-18T09:57:21;32.38;;;5.68;;
23826;SDS011;12094;50.822;4.376;2022-10-18T09:59:55;22.95;;;5.50;;
23826;SDS011;12094;50.822;4.376;2022-10-18T10:02:25;23.05;;;4.50;;
23826;SDS011;12094;50.822;4.376;2022-10-18T10:04:52;19.02;;;4.93;;
23826;SDS011;12094;50.822;4.376;2022-10-18T10:07:26;27.98;;;5.65;;
23826;SDS011;12094;50.822;4.376;2022-10-18T10:10:09;20.75;;;4.28;;
23826;SDS011;12094;50.822;4.376;2022-10-18T10:12:46;21.20;;;4.72;;
23826;SDS011;12094;50.822;4.376;2022-10-18T10:15:28;20.33;;;4.80;;
23826;SDS011;12094;50.822;4.376;2022-10-18T10:18:07;26.08;;;4.97;;
23826;SDS011;12094;50.822;4.376;2022-10-18T10:20:48;20.95;;;4.57;;
23826;SDS011;12094;50.822;4.376;2022-10-18T10:23:24;18.25;;;4.07;;
23826;SDS011;12094;50.822;4.376;2022-10-18T10:26:06;18.98;;;5.72;;
23826;SDS011;12094;50.822;4.376;2022-10-18T10:28:45;19.85;;;4.13;;
23826;SDS011;12094;50.822;4.376;2022-10-18T10:36:55;19.48;;;3.75;;
23826;SDS011;12094;50.822;4.376;2022-10-18T10:39:23;19.17;;;3.95;;
23826;SDS011;12094;50.822;4.376;2022-10-18T10:41:50;19.38;;;3.67;;
23826;SDS011;12094;50.822;4.376;2022-10-18T10:44:21;16.77;;;3.80;;
23826;SDS011;12094;50.822;4.376;2022-10-18T10:46:51;19.33;;;3.45;;
23826;SDS011;12094;50.822;4.376;2022-10-18T10:49:20;13.20;;;3.17;;
23826;SDS011;12094;50.822;4.376;2022-10-18T10:52:06;18.23;;;3.58;;
23826;SDS011;12094;50.822;4.376;2022-10-18T10:55:01;19.35;;;3.28;;
23826;SDS011;12094;50.822;4.376;2022-10-18T10:57:49;13.82;;;3.45;;
23826;SDS011;12094;50.822;4.376;2022-10-18T11:03:12;13.73;;;2.92;;
23826;SDS011;12094;50.822;4.376;2022-10-18T11:05:55;20.60;;;3.45;;
23826;SDS011;12094;50.822;4.376;2022-10-18T11:08:28;17.95;;;2.80;;
23826;SDS011;12094;50.822;4.376;2022-10-18T11:11:24;17.48;;;3.38;;
23826;SDS011;12094;50.822;4.376;2022-10-18T11:20:04;14.57;;;3.33;;
23826;SDS011;12094;50.822;4.376;2022-10-18T11:23:13;26.25;;;4.07;;
23826;SDS011;12094;50.822;4.376;2022-10-18T11:31:17;10.98;;;2.40;;
23826;SDS011;12094;50.822;4.376;2022-10-18T11:48:23;14.00;;;3.00;;
23826;SDS011;12094;50.822;4.376;2022-10-18T11:51:12;16.83;;;3.00;;
23826;SDS011;12094;50.822;4.376;2022-10-18T12:05:54;13.00;;;2.90;;
23826;SDS011;12094;50.822;4.376;2022-10-18T12:08:58;14.85;;;2.92;;
23826;SDS011;12094;50.822;4.376;2022-10-18T12:11:50;12.68;;;2.65;;
23826;SDS011;12094;50.822;4.376;2022-10-18T12:14:39;13.75;;;2.58;;
23826;SDS011;12094;50.822;4.376;2022-10-18T12:17:15;13.18;;;3.00;;
23826;SDS011;12094;50.822;4.376;2022-10-18T12:20:09;16.63;;;3.63;;
23826;SDS011;12094;50.822;4.376;2022-10-18T12:22:47;14.55;;;2.97;;
23826;SDS011;12094;50.822;4.376;2022-10-18T12:25:27;13.48;;;3.28;;
23826;SDS011;12094;50.822;4.376;2022-10-18T12:30:52;11.60;;;3.05;;
23826;SDS011;12094;50.822;4.376;2022-10-18T12:33:29;11.07;;;2.40;;
23826;SDS011;12094;50.822;4.376;2022-10-18T12:36:05;12.80;;;2.75;;
23826;SDS011;12094;50.822;4.376;2022-10-18T12:38:39;18.67;;;3.10;;
23826;SDS011;12094;50.822;4.376;2022-10-18T12:41:11;17.40;;;3.70;;
23826;SDS011;12094;50.822;4.376;2022-10-18T12:44:23;15.68;;;2.83;;
23826;SDS011;12094;50.822;4.376;2022-10-18T13:13:58;11.75;;;2.63;;
23826;SDS011;12094;50.822;4.376;2022-10-18T13:25:11;19.92;;;3.25;;
23826;SDS011;12094;50.822;4.376;2022-10-18T13:27:52;17.98;;;2.88;;
23826;SDS011;12094;50.822;4.376;2022-10-18T13:30:54;19.77;;;3.10;;
23826;SDS011;12094;50.822;4.376;2022-10-18T13:33:37;14.68;;;2.67;;
23826;SDS011;12094;50.822;4.376;2022-10-18T13:36:21;20.88;;;2.88;;
23826;SDS011;12094;50.822;4.376;2022-10-18T13:56:59;14.82;;;2.60;;
23826;SDS011;12094;50.822;4.376;2022-10-18T14:14:13;15.90;;;2.00;;
23826;SDS011;12094;50.822;4.376;2022-10-18T14:17:02;13.82;;;2.40;;
23826;SDS011;12094;50.822;4.376;2022-10-18T14:19:55;19.25;;;2.10;;
23826;SDS011;12094;50.822;4.376;2022-10-18T14:25:43;14.75;;;2.85;;
23826;SDS011;12094;50.822;4.376;2022-10-18T14:28:11;17.83;;;2.75;;
23826;SDS011;12094;50.822;4.376;2022-10-18T14:33:41;18.10;;;2.28;;
23826;SDS011;12094;50.822;4.376;2022-10-18T14:36:20;16.30;;;2.92;;
23826;SDS011;12094;50.822;4.376;2022-10-18T14:41:29;21.23;;;3.15;;
23826;SDS011;12094;50.822;4.376;2022-10-18T14:46:48;11.50;;;2.53;;
23826;SDS011;12094;50.822;4.376;2022-10-18T14:49:37;15.07;;;2.75;;
23826;SDS011;12094;50.822;4.376;2022-10-18T14:52:09;19.92;;;2.70;;
23826;SDS011;12094;50.822;4.376;2022-10-18T14:54:40;17.35;;;2.38;;
23826;SDS011;12094;50.822;4.376;2022-10-18T14:57:14;17.30;;;2.92;;
23826;SDS011;12094;50.822;4.376;2022-10-18T14:59:45;19.90;;;3.10;;
23826;SDS011;12094;50.822;4.376;2022-10-18T15:02:26;15.82;;;2.72;;
23826;SDS011;12094;50.822;4.376;2022-10-18T15:07:33;17.27;;;2.80;;
23826;SDS011;12094;50.822;4.376;2022-10-18T15:10:01;17.77;;;2.63;;
23826;SDS011;12094;50.822;4.376;2022-10-18T15:12:30;18.20;;;2.50;;
23826;SDS011;12094;50.822;4.376;2022-10-18T15:15:18;17.95;;;2.55;;
23826;SDS011;12094;50.822;4.376;2022-10-18T15:17:48;13.48;;;3.08;;
23826;SDS011;12094;50.822;4.376;2022-10-18T15:20:20;17.92;;;2.58;;
23826;SDS011;12094;50.822;4.376;2022-10-18T15:22:53;14.70;;;2.75;;
23826;SDS011;12094;50.822;4.376;2022-10-18T15:25:48;16.15;;;2.30;;
23826;SDS011;12094;50.822;4.376;2022-10-18T15:28:22;17.30;;;3.17;;
23826;SDS011;12094;50.822;4.376;2022-10-18T15:30:54;14.13;;;2.35;;
23826;SDS011;12094;50.822;4.376;2022-10-18T15:33:30;13.15;;;2.35;;
23826;SDS011;12094;50.822;4.376;2022-10-18T15:36:09;15.80;;;2.53;;
23826;SDS011;12094;50.822;4.376;2022-10-18T15:38:44;20.25;;;2.47;;
23826;SDS011;12094;50.822;4.376;2022-10-18T15:41:36;22.88;;;2.80;;
23826;SDS011;12094;50.822;4.376;2022-10-18T15:54:46;14.38;;;2.42;;
23826;SDS011;12094;50.822;4.376;2022-10-18T15:57:20;18.65;;;2.92;;
23826;SDS011;12094;50.822;4.376;2022-10-18T15:59:56;19.40;;;2.90;;
23826;SDS011;12094;50.822;4.376;2022-10-18T16:02:37;18.80;;;3.08;;
23826;SDS011;12094;50.822;4.376;2022-10-18T16:05:04;17.50;;;3.28;;
23826;SDS011;12094;50.822;4.376;2022-10-18T16:07:31;16.80;;;2.80;;
23826;SDS011;12094;50.822;4.376;2022-10-18T16:09:59;12.65;;;2.40;;
23826;SDS011;12094;50.822;4.376;2022-10-18T16:12:26;9.65;;;2.58;;
23826;SDS011;12094;50.822;4.376;2022-10-18T16:14:52;20.02;;;3.00;;
23826;SDS011;12094;50.822;4.376;2022-10-18T16:17:20;15.70;;;2.58;;
23826;SDS011;12094;50.822;4.376;2022-10-18T16:19:49;17.15;;;2.95;;
23826;SDS011;12094;50.822;4.376;2022-10-18T16:22:16;19.15;;;2.63;;
23826;SDS011;12094;50.822;4.376;2022-10-18T16:24:43;15.75;;;2.95;;
23826;SDS011;12094;50.822;4.376;2022-10-18T16:27:10;18.10;;;2.80;;
23826;SDS011;12094;50.822;4.376;2022-10-18T16:29:37;17.67;;;3.00;;
23826;SDS011;12094;50.822;4.376;2022-10-18T16:32:05;18.23;;;4.00;;
23826;SDS011;12094;50.822;4.376;2022-10-18T16:34:32;14.73;;;3.53;;
23826;SDS011;12094;50.822;4.376;2022-10-18T16:36:59;19.48;;;3.25;;
23826;SDS011;12094;50.822;4.376;2022-10-18T16:39:27;15.60;;;3.05;;
23826;SDS011;12094;50.822;4.376;2022-10-18T16:41:58;14.27;;;3.00;;
23826;SDS011;12094;50.822;4.376;2022-10-18T16:44:26;11.50;;;2.70;;
23826;SDS011;12094;50.822;4.376;2022-10-18T16:46:56;13.40;;;2.97;;
23826;SDS011;12094;50.822;4.376;2022-10-18T16:49:25;12.13;;;2.67;;
23826;SDS011;12094;50.822;4.376;2022-10-18T16:51:53;17.95;;;2.97;;
23826;SDS011;12094;50.822;4.376;2022-10-18T16:54:20;15.15;;;3.25;;
23826;SDS011;12094;50.822;4.376;2022-10-18T16:56:48;12.98;;;2.70;;
23826;SDS011;12094;50.822;4.376;2022-10-18T16:59:23;12.15;;;2.75;;
23826;SDS011;12094;50.822;4.376;2022-10-18T17:01:55;16.73;;;3.17;;
23826;SDS011;12094;50.822;4.376;2022-10-18T17:04:22;18.65;;;3.25;;
23826;SDS011;12094;50.822;4.376;2022-10-18T17:06:49;17.25;;;3.42;;
23826;SDS011;12094;50.822;4.376;2022-10-18T17:09:17;19.65;;;4.03;;
23826;SDS011;12094;50.822;4.376;2022-10-18T17:11:44;16.15;;;4.32;;
23826;SDS011;12094;50.822;4.376;2022-10-18T17:14:12;14.35;;;4.07;;
23826;SDS011;12094;50.822;4.376;2022-10-18T17:16:40;14.05;;;4.10;;
23826;SDS011;12094;50.822;4.376;2022-10-18T17:19:12;14.45;;;3.60;;
23826;SDS011;12094;50.822;4.376;2022-10-18T17:21:40;17.52;;;4.10;;
23826;SDS011;12094;50.822;4.376;2022-10-18T17:24:07;16.75;;;3.22;;
23826;SDS011;12094;50.822;4.376;2022-10-18T17:26:34;13.68;;;3.70;;
23826;SDS011;12094;50.822;4.376;2022-10-18T17:29:03;15.23;;;3.25;;
23826;SDS011;12094;50.822;4.376;2022-10-18T17:34:01;15.52;;;3.53;;
23826;SDS011;12094;50.822;4.376;2022-10-18T17:36:29;17.48;;;3.47;;
23826;SDS011;12094;50.822;4.376;2022-10-18T17:38:57;14.10;;;3.75;;
23826;SDS011;12094;50.822;4.376;2022-10-18T17:41:24;15.95;;;3.53;;
23826;SDS011;12094;50.822;4.376;2022-10-18T17:43:51;24.55;;;3.65;;
23826;SDS011;12094;50.822;4.376;2022-10-18T17:46:19;21.17;;;3.42;;
23826;SDS011;12094;50.822;4.376;2022-10-18T17:48:46;18.73;;;3.72;;
23826;SDS011;12094;50.822;4.376;2022-10-18T17:51:14;15.02;;;3.40;;
23826;SDS011;12094;50.822;4.376;2022-10-18T17:53:42;12.30;;;3.65;;
23826;SDS011;12094;50.822;4.376;2022-10-18T17:56:09;18.58;;;3.53;;
23826;SDS011;12094;50.822;4.376;2022-10-18T17:58:38;18.73;;;4.40;;
23826;SDS011;12094;50.822;4.376;2022-10-18T18:01:12;17.20;;;3.58;;
23826;SDS011;12094;50.822;4.376;2022-10-18T18:03:41;16.33;;;3.63;;
23826;SDS011;12094;50.822;4.376;2022-10-18T18:06:15;17.45;;;3.28;;
23826;SDS011;12094;50.822;4.376;2022-10-18T18:08:45;22.30;;;4.07;;
23826;SDS011;12094;50.822;4.376;2022-10-18T18:11:13;14.23;;;3.50;;
23826;SDS011;12094;50.822;4.376;2022-10-18T18:13:41;22.73;;;4.97;;
23826;SDS011;12094;50.822;4.376;2022-10-18T18:16:12;18.48;;;5.65;;
23826;SDS011;12094;50.822;4.376;2022-10-18T18:18:42;27.52;;;5.30;;
23826;SDS011;12094;50.822;4.376;2022-10-18T18:21:10;19.48;;;4.88;;
23826;SDS011;12094;50.822;4.376;2022-10-18T18:23:37;19.23;;;4.10;;
23826;SDS011;12094;50.822;4.376;2022-10-18T18:26:05;24.77;;;4.65;;
23826;SDS011;12094;50.822;4.376;2022-10-18T18:28:32;19.45;;;4.05;;
23826;SDS011;12094;50.822;4.376;2022-10-18T18:31:09;17.38;;;3.88;;
23826;SDS011;12094;50.822;4.376;2022-10-18T18:33:37;25.55;;;4.95;;
23826;SDS011;12094;50.822;4.376;2022-10-18T18:36:04;18.17;;;3.97;;
23826;SDS011;12094;50.822;4.376;2022-10-18T18:38:33;17.63;;;4.35;;
23826;SDS011;12094;50.822;4.376;2022-10-18T18:41:06;19.02;;;4.28;;
23826;SDS011;12094;50.822;4.376;2022-10-18T18:43:36;15.52;;;4.07;;
23826;SDS011;12094;50.822;4.376;2022-10-18T18:46:04;17.20;;;4.57;;
23826;SDS011;12094;50.822;4.376;2022-10-18T18:48:32;20.77;;;4.60;;
23826;SDS011;12094;50.822;4.376;2022-10-18T18:51:01;23.55;;;4.88;;
23826;SDS011;12094;50.822;4.376;2022-10-18T18:53:29;16.77;;;4.60;;
23826;SDS011;12094;50.822;4.376;2022-10-18T18:56:04;16.52;;;5.15;;
23826;SDS011;12094;50.822;4.376;2022-10-18T18:58:35;15.32;;;4.53;;